createdAt,value
2023-08-30T00:01:50.803Z,2.22
2023-08-30T00:04:19.038Z,2.03
2023-08-30T00:06:47.216Z,2.50
2023-08-30T00:09:15.337Z,2.70
2023-08-30T00:11:43.680Z,2.40
2023-08-30T00:14:12.230Z,2.63
2023-08-30T00:16:40.980Z,2.40
2023-08-30T00:19:10.986Z,3.20
2023-08-30T00:21:39.323Z,3.45
2023-08-30T00:24:08.017Z,2.80
2023-08-30T00:26:36.294Z,3.25
2023-08-30T00:29:04.718Z,3.10
2023-08-30T00:31:32.894Z,2.55
2023-08-30T00:34:04.175Z,3.15
2023-08-30T00:36:33.776Z,2.95
2023-08-30T00:39:01.894Z,2.80
2023-08-30T00:41:30.152Z,2.75
2023-08-30T00:44:01.125Z,3.40
2023-08-30T00:46:30.345Z,3.28
2023-08-30T00:48:58.933Z,3.30
2023-08-30T00:51:27.443Z,3.58
2023-08-30T00:53:57.497Z,2.95
2023-08-30T00:56:25.843Z,3.20
2023-08-30T00:58:54.092Z,3.28
2023-08-30T01:01:22.955Z,3.83
2023-08-30T01:03:51.157Z,4.00
2023-08-30T01:06:19.346Z,3.78
2023-08-30T01:08:47.607Z,3.80
2023-08-30T01:11:21.723Z,2.80
2023-08-30T01:13:55.229Z,3.45
2023-08-30T01:16:25.904Z,2.92
2023-08-30T01:18:58.673Z,2.90
2023-08-30T01:21:40.477Z,2.70
2023-08-30T01:24:12.023Z,3.00
2023-08-30T01:26:47.425Z,2.95
2023-08-30T01:29:20.650Z,3.17
2023-08-30T01:31:50.564Z,3.03
2023-08-30T01:34:19.256Z,4.63
2023-08-30T01:36:47.917Z,3.97
2023-08-30T01:39:17.555Z,3.40
2023-08-30T01:41:46.436Z,3.55
2023-08-30T01:44:17.945Z,3.38
2023-08-30T01:46:47.334Z,3.33
2023-08-30T01:49:16.381Z,3.55
2023-08-30T01:51:44.993Z,3.30
2023-08-30T01:54:19.518Z,3.95
2023-08-30T01:56:48.343Z,3.70
2023-08-30T01:59:17.911Z,4.45
2023-08-30T02:01:46.136Z,4.30
2023-08-30T02:04:14.333Z,3.72
2023-08-30T02:06:50.334Z,3.70
2023-08-30T02:09:26.403Z,4.40
2023-08-30T02:11:56.195Z,5.10
2023-08-30T02:14:29.130Z,4.80
2023-08-30T02:16:58.091Z,4.70
2023-08-30T02:19:26.873Z,4.40
2023-08-30T02:21:55.102Z,4.47
2023-08-30T02:24:23.519Z,4.63
2023-08-30T02:26:51.743Z,4.35
2023-08-30T02:29:19.965Z,5.15
2023-08-30T02:31:49.605Z,5.63
2023-08-30T02:34:17.846Z,5.47
2023-08-30T02:36:46.035Z,7.05
2023-08-30T02:39:17.187Z,7.85
2023-08-30T02:41:45.322Z,8.00
2023-08-30T02:44:13.962Z,9.65
2023-08-30T02:46:42.786Z,10.25
2023-08-30T02:49:12.468Z,9.82
2023-08-30T02:51:40.973Z,10.88
2023-08-30T02:54:09.378Z,9.52
2023-08-30T02:56:37.611Z,11.80
2023-08-30T02:59:09.001Z,10.45
2023-08-30T03:01:37.375Z,11.05
2023-08-30T03:04:07.489Z,11.40
2023-08-30T03:06:37.545Z,11.73
2023-08-30T03:09:07.501Z,13.00
2023-08-30T03:11:36.667Z,11.60
2023-08-30T03:14:04.985Z,12.30
2023-08-30T03:16:33.267Z,11.60
2023-08-30T03:19:01.833Z,11.23
2023-08-30T03:21:30.117Z,11.00
2023-08-30T03:23:59.788Z,9.93
2023-08-30T03:26:27.914Z,11.48
2023-08-30T03:28:56.110Z,10.88
2023-08-30T03:31:24.820Z,10.32
2023-08-30T03:33:53.083Z,10.02
2023-08-30T03:36:21.935Z,9.50
2023-08-30T03:38:50.247Z,9.88
2023-08-30T03:41:20.266Z,10.48
2023-08-30T03:43:48.477Z,9.85
2023-08-30T03:46:16.746Z,10.65
2023-08-30T03:48:44.954Z,11.30
2023-08-30T03:51:13.856Z,10.82
2023-08-30T03:53:42.163Z,10.63
2023-08-30T03:56:10.337Z,10.05
2023-08-30T03:58:40.334Z,10.20
2023-08-30T04:01:09.307Z,10.23
2023-08-30T04:03:37.732Z,10.00
2023-08-30T04:06:06.108Z,10.65
2023-08-30T04:08:34.536Z,10.10
2023-08-30T04:11:03.941Z,10.25
2023-08-30T04:13:32.234Z,10.02
2023-08-30T04:16:01.921Z,9.40
2023-08-30T04:18:30.081Z,9.57
2023-08-30T04:21:00.721Z,9.18
2023-08-30T04:23:28.963Z,9.02
2023-08-30T04:25:57.512Z,8.85
2023-08-30T04:28:27.843Z,10.18
2023-08-30T04:30:56.653Z,9.73
2023-08-30T04:33:26.611Z,9.98
2023-08-30T04:35:55.749Z,9.63
2023-08-30T04:38:24.308Z,9.88
2023-08-30T04:40:52.586Z,9.35
2023-08-30T04:43:20.796Z,10.15
2023-08-30T04:45:50.409Z,9.55
2023-08-30T04:48:18.629Z,9.05
2023-08-30T04:50:48.168Z,9.70
2023-08-30T04:53:16.381Z,9.48
2023-08-30T04:55:44.529Z,9.93
2023-08-30T04:58:12.729Z,9.30
2023-08-30T05:00:41.113Z,8.55
2023-08-30T05:03:09.365Z,8.90
2023-08-30T05:05:37.657Z,7.70
2023-08-30T05:08:07.976Z,8.18
2023-08-30T05:10:36.501Z,8.15
2023-08-30T05:13:05.150Z,7.78
2023-08-30T05:15:33.360Z,8.70
2023-08-30T05:18:01.578Z,8.30
2023-08-30T05:20:30.070Z,8.27
2023-08-30T05:22:58.206Z,7.75
2023-08-30T05:25:28.687Z,8.13
2023-08-30T05:27:59.709Z,7.88
2023-08-30T05:30:28.003Z,8.25
2023-08-30T05:32:56.332Z,8.55
2023-08-30T05:35:25.115Z,8.90
2023-08-30T05:37:53.319Z,8.00
2023-08-30T05:40:21.485Z,8.70
2023-08-30T05:42:51.346Z,7.70
2023-08-30T05:45:19.530Z,8.20
2023-08-30T05:47:48.113Z,8.20
2023-08-30T05:50:16.427Z,8.25
2023-08-30T05:52:45.893Z,7.80
2023-08-30T05:55:14.150Z,7.50
2023-08-30T05:57:42.431Z,7.82
2023-08-30T06:00:14.209Z,7.43
2023-08-30T06:02:42.412Z,7.55
2023-08-30T06:05:12.395Z,8.00
2023-08-30T06:07:40.708Z,7.68
2023-08-30T06:10:09.833Z,8.15
2023-08-30T06:12:37.982Z,6.88
2023-08-30T06:15:07.731Z,7.43
2023-08-30T06:17:37.418Z,6.38
2023-08-30T06:20:06.650Z,6.47
2023-08-30T06:22:34.842Z,6.57
2023-08-30T06:25:07.908Z,6.50
2023-08-30T06:27:36.183Z,6.13
2023-08-30T06:30:04.672Z,6.25
2023-08-30T06:32:32.983Z,5.38
2023-08-30T06:35:02.806Z,6.15
2023-08-30T06:37:31.735Z,6.18
2023-08-30T06:40:00.010Z,5.82
2023-08-30T06:42:28.239Z,6.28
2023-08-30T06:44:56.453Z,6.10
2023-08-30T06:47:24.614Z,6.15
2023-08-30T06:49:52.769Z,5.90
2023-08-30T06:52:22.436Z,5.63
2023-08-30T06:54:50.881Z,5.60
2023-08-30T06:57:19.030Z,4.85
2023-08-30T06:59:47.187Z,5.35
2023-08-30T07:02:15.752Z,5.03
2023-08-30T07:04:43.923Z,5.03
2023-08-30T07:07:13.911Z,4.55
2023-08-30T07:09:43.623Z,5.22
2023-08-30T07:12:11.984Z,5.00
2023-08-30T07:14:40.227Z,4.60
2023-08-30T07:17:08.438Z,5.07
2023-08-30T07:19:37.366Z,5.03
2023-08-30T07:22:07.972Z,4.75
2023-08-30T07:24:36.121Z,4.40
2023-08-30T07:27:06.445Z,4.80
2023-08-30T07:29:34.576Z,4.93
2023-08-30T07:32:03.603Z,4.60
2023-08-30T07:34:31.792Z,4.32
2023-08-30T07:36:59.993Z,4.50
2023-08-30T07:39:28.180Z,4.15
2023-08-30T07:41:56.361Z,4.90
2023-08-30T07:44:26.789Z,4.90
2023-08-30T07:46:55.293Z,4.57
2023-08-30T07:49:23.452Z,4.95
2023-08-30T07:51:51.735Z,4.50
2023-08-30T07:54:19.982Z,4.43
2023-08-30T07:56:48.208Z,4.50
2023-08-30T07:59:16.403Z,4.63
2023-08-30T08:01:46.123Z,4.32
2023-08-30T08:04:14.348Z,4.18
2023-08-30T08:06:51.330Z,4.15
2023-08-30T08:09:24.612Z,4.60
2023-08-30T08:11:52.922Z,4.43
2023-08-30T08:14:21.244Z,4.00
2023-08-30T08:16:50.924Z,3.53
2023-08-30T08:19:19.403Z,4.28
2023-08-30T08:21:50.622Z,4.30
2023-08-30T08:24:18.805Z,4.30
2023-08-30T08:26:47.057Z,3.65
2023-08-30T08:29:15.324Z,4.70
2023-08-30T08:31:43.448Z,3.85
2023-08-30T08:34:14.993Z,4.38
2023-08-30T08:36:44.437Z,4.07
2023-08-30T08:39:14.970Z,3.75
2023-08-30T08:41:44.613Z,3.90
2023-08-30T08:44:13.734Z,4.03
2023-08-30T08:46:43.476Z,4.65
2023-08-30T08:49:14.620Z,4.30
2023-08-30T08:51:43.415Z,3.70
2023-08-30T08:54:15.308Z,4.10
2023-08-30T08:56:43.751Z,3.53
2023-08-30T08:59:12.011Z,4.03
2023-08-30T09:01:41.818Z,3.83
2023-08-30T09:04:12.787Z,3.95
2023-08-30T09:06:48.406Z,4.28
2023-08-30T09:09:17.043Z,3.70
2023-08-30T09:11:51.340Z,4.57
2023-08-30T09:14:33.505Z,5.18
2023-08-30T09:17:05.973Z,4.95
2023-08-30T09:19:35.916Z,4.95
2023-08-30T09:22:04.371Z,4.95
2023-08-30T09:24:40.612Z,5.32
2023-08-30T09:27:09.435Z,5.95
2023-08-30T09:29:37.746Z,6.10
2023-08-30T09:32:06.467Z,5.50
2023-08-30T09:34:36.092Z,5.57
2023-08-30T09:37:06.991Z,5.57
2023-08-30T09:39:36.538Z,5.72
2023-08-30T09:42:05.184Z,6.25
2023-08-30T09:44:33.499Z,5.47
2023-08-30T09:47:02.050Z,5.90
2023-08-30T09:49:30.922Z,5.95
2023-08-30T09:52:07.480Z,5.72
2023-08-30T09:54:42.947Z,6.22
2023-08-30T09:57:11.686Z,6.57
2023-08-30T09:59:41.627Z,6.28
2023-08-30T10:02:12.075Z,7.00
2023-08-30T10:04:42.199Z,7.53
2023-08-30T10:07:13.379Z,8.00
2023-08-30T10:09:51.674Z,8.52
2023-08-30T10:12:25.120Z,8.27
2023-08-30T10:14:53.467Z,7.80
2023-08-30T10:17:24.375Z,7.00
2023-08-30T10:19:54.472Z,6.63
2023-08-30T10:22:25.397Z,7.47
2023-08-30T10:27:32.841Z,6.43
2023-08-30T10:30:02.893Z,6.55
2023-08-30T10:32:31.322Z,6.90
2023-08-30T10:35:04.366Z,8.50
2023-08-30T10:37:36.051Z,8.80
2023-08-30T10:40:07.086Z,7.88
2023-08-30T10:42:35.926Z,6.85
2023-08-30T10:47:40.328Z,7.28
2023-08-30T10:50:11.586Z,7.63
2023-08-30T10:52:41.523Z,7.07
2023-08-30T10:55:11.052Z,6.68
2023-08-30T10:57:40.200Z,7.80
2023-08-30T11:00:10.792Z,7.28
2023-08-30T11:02:40.031Z,7.13
2023-08-30T11:05:09.226Z,7.25
2023-08-30T11:07:37.822Z,7.43
2023-08-30T11:10:09.974Z,6.85
2023-08-30T11:12:38.174Z,7.38
2023-08-30T11:15:09.537Z,6.32
2023-08-30T11:17:37.938Z,5.70
2023-08-30T11:20:10.694Z,6.18
2023-08-30T11:22:39.931Z,6.30
2023-08-30T11:25:11.478Z,5.15
2023-08-30T11:27:40.223Z,5.10
2023-08-30T11:30:10.017Z,5.07
2023-08-30T11:32:39.921Z,5.20
2023-08-30T11:35:09.396Z,5.38
2023-08-30T11:37:37.605Z,4.45
2023-08-30T11:40:07.460Z,4.28
2023-08-30T11:42:38.438Z,4.07
2023-08-30T11:45:07.630Z,4.30
2023-08-30T11:47:36.670Z,3.97
2023-08-30T11:50:07.252Z,4.35
2023-08-30T11:52:37.312Z,3.92
2023-08-30T11:55:07.065Z,4.10
2023-08-30T11:57:38.572Z,4.72
2023-08-30T12:00:11.712Z,4.82
2023-08-30T12:02:40.125Z,4.35
2023-08-30T12:05:12.545Z,4.22
2023-08-30T12:07:41.463Z,4.05
2023-08-30T12:10:11.017Z,4.40
2023-08-30T12:12:46.415Z,3.92
2023-08-30T12:15:16.129Z,3.80
2023-08-30T12:17:44.554Z,4.00
2023-08-30T12:20:21.741Z,4.05
2023-08-30T12:22:52.122Z,4.00
2023-08-30T12:25:22.061Z,4.47
2023-08-30T12:27:51.939Z,4.30
2023-08-30T12:30:20.676Z,4.03
2023-08-30T12:32:49.941Z,4.63
2023-08-30T12:35:18.381Z,3.60
2023-08-30T12:37:46.713Z,3.20
2023-08-30T12:40:15.101Z,3.30
2023-08-30T12:42:43.327Z,3.28
2023-08-30T12:45:13.411Z,3.55
2023-08-30T12:47:41.634Z,3.13
2023-08-30T12:50:10.777Z,3.55
2023-08-30T12:52:39.128Z,3.25
2023-08-30T12:55:07.916Z,3.97
2023-08-30T12:57:36.141Z,4.20
2023-08-30T13:00:04.688Z,4.15
2023-08-30T13:02:34.370Z,3.90
2023-08-30T13:05:02.626Z,3.75
2023-08-30T13:07:30.847Z,3.85
2023-08-30T13:09:59.198Z,3.60
2023-08-30T13:12:27.447Z,3.38
2023-08-30T13:14:55.758Z,3.60
2023-08-30T13:17:27.112Z,3.72
2023-08-30T13:19:57.972Z,3.25
2023-08-30T13:22:26.208Z,3.30
2023-08-30T13:24:54.610Z,3.05
2023-08-30T13:27:22.806Z,3.30
2023-08-30T13:29:51.107Z,3.88
2023-08-30T13:32:19.354Z,3.72
2023-08-30T13:34:48.414Z,3.63
2023-08-30T13:37:18.790Z,3.17
2023-08-30T13:39:47.069Z,2.92
2023-08-30T13:42:15.366Z,3.35
2023-08-30T13:44:44.560Z,3.28
2023-08-30T13:47:12.782Z,3.47
2023-08-30T13:49:41.001Z,3.03
2023-08-30T13:52:12.512Z,3.05
2023-08-30T13:54:42.023Z,2.90
2023-08-30T13:57:10.222Z,3.08
2023-08-30T13:59:38.531Z,3.05
2023-08-30T14:02:06.915Z,3.08
2023-08-30T14:04:38.287Z,3.00
2023-08-30T14:07:06.815Z,3.92
2023-08-30T14:09:35.022Z,2.85
2023-08-30T14:12:05.449Z,3.00
2023-08-30T14:14:34.390Z,3.15
2023-08-30T14:17:02.533Z,3.33
2023-08-30T14:19:30.771Z,3.45
2023-08-30T14:21:59.429Z,3.47
2023-08-30T14:24:27.573Z,3.03
2023-08-30T14:26:55.814Z,3.08
2023-08-30T14:29:25.373Z,3.75
2023-08-30T14:31:53.612Z,3.00
2023-08-30T14:34:22.837Z,3.40
2023-08-30T14:36:51.081Z,3.40
2023-08-30T14:39:19.735Z,3.30
2023-08-30T14:41:48.072Z,4.00
2023-08-30T14:44:16.302Z,3.63
2023-08-30T14:46:45.864Z,3.50
2023-08-30T14:49:14.115Z,3.42
2023-08-30T14:51:42.427Z,3.60
2023-08-30T14:54:10.904Z,3.38
2023-08-30T14:56:39.256Z,3.30
2023-08-30T14:59:07.440Z,3.80
2023-08-30T15:01:36.738Z,3.60
2023-08-30T15:04:07.251Z,3.20
2023-08-30T15:06:35.534Z,3.30
2023-08-30T15:09:04.367Z,3.30
2023-08-30T15:11:32.624Z,2.97
2023-08-30T15:14:00.789Z,3.40
2023-08-30T15:16:29.138Z,2.80
2023-08-30T15:18:57.356Z,3.08
2023-08-30T15:21:27.298Z,2.80
2023-08-30T15:23:55.503Z,3.13
2023-08-30T15:26:23.654Z,2.50
2023-08-30T15:28:52.183Z,2.72
2023-08-30T15:31:20.869Z,3.08
2023-08-30T15:33:49.160Z,3.38
2023-08-30T15:36:17.507Z,2.95
2023-08-30T15:38:48.170Z,2.80
2023-08-30T15:41:16.483Z,3.25
2023-08-30T15:43:44.904Z,2.70
2023-08-30T15:46:14.672Z,3.60
2023-08-30T15:48:43.034Z,4.80
2023-08-30T15:51:22.898Z,5.13
2023-08-30T15:53:54.888Z,5.32
2023-08-30T15:56:23.853Z,5.18
2023-08-30T15:58:52.463Z,5.00
2023-08-30T16:01:21.936Z,4.95
2023-08-30T16:03:50.485Z,5.00
2023-08-30T16:06:18.747Z,5.00
2023-08-30T16:08:47.154Z,5.57
2023-08-30T16:11:16.726Z,6.18
2023-08-30T16:13:46.387Z,6.07
2023-08-30T16:16:14.596Z,6.25
2023-08-30T16:18:42.961Z,5.93
2023-08-30T16:21:11.133Z,6.68
2023-08-30T16:23:40.662Z,6.93
2023-08-30T16:26:08.876Z,6.63
2023-08-30T16:28:38.384Z,5.97
2023-08-30T16:31:07.529Z,6.90
2023-08-30T16:33:35.966Z,6.97
2023-08-30T16:36:04.364Z,7.30
2023-08-30T16:38:34.086Z,6.32
2023-08-30T16:41:05.187Z,6.43
2023-08-30T16:43:33.715Z,6.90
2023-08-30T16:46:04.398Z,6.03
2023-08-30T16:48:34.734Z,6.35
2023-08-30T16:51:05.494Z,6.13
2023-08-30T16:53:35.723Z,5.95
2023-08-30T16:56:04.889Z,5.63
2023-08-30T16:58:34.103Z,6.70
2023-08-30T17:01:09.925Z,6.97
2023-08-30T17:03:38.440Z,7.00
2023-08-30T17:06:07.608Z,5.68
2023-08-30T17:08:35.947Z,4.85
2023-08-30T17:11:05.982Z,4.72
2023-08-30T17:13:34.773Z,4.20
2023-08-30T17:16:08.812Z,4.30
2023-08-30T17:18:38.784Z,3.65
2023-08-30T17:21:10.626Z,3.83
2023-08-30T17:23:39.098Z,3.70
2023-08-30T17:26:07.931Z,3.47
2023-08-30T17:28:36.892Z,3.08
2023-08-30T17:31:07.437Z,2.90
2023-08-30T17:33:38.813Z,2.55
2023-08-30T17:36:07.634Z,2.85
2023-08-30T17:38:37.348Z,2.60
2023-08-30T17:41:09.431Z,2.60
2023-08-30T17:43:37.770Z,2.80
2023-08-30T17:46:08.020Z,2.60
2023-08-30T17:48:36.283Z,2.95
2023-08-30T17:51:05.092Z,2.58
2023-08-30T17:53:33.382Z,2.00
2023-08-30T17:56:02.248Z,2.28
2023-08-30T17:58:30.571Z,2.38
2023-08-30T18:01:00.604Z,2.53
2023-08-30T18:03:31.199Z,2.53
2023-08-30T18:06:04.782Z,2.45
2023-08-30T18:08:34.723Z,2.30
2023-08-30T18:11:02.895Z,2.40
2023-08-30T18:13:31.010Z,2.30
2023-08-30T18:15:59.143Z,2.08
2023-08-30T18:18:27.321Z,2.20
2023-08-30T18:20:57.108Z,2.17
2023-08-30T18:23:25.284Z,2.10
2023-08-30T18:25:53.472Z,2.58
2023-08-30T18:28:21.740Z,2.10
2023-08-30T18:30:54.132Z,2.38
2023-08-30T18:33:23.255Z,2.30
2023-08-30T18:35:51.439Z,2.00
2023-08-30T18:38:21.417Z,1.90
2023-08-30T18:40:59.041Z,2.13
2023-08-30T18:43:33.170Z,2.03
2023-08-30T18:46:01.449Z,2.10
2023-08-30T18:48:29.732Z,1.88
2023-08-30T18:50:57.918Z,2.10
2023-08-30T18:53:27.574Z,2.13
2023-08-30T18:55:55.981Z,2.58
2023-08-30T18:58:24.159Z,2.30
2023-08-30T19:00:52.476Z,2.45
2023-08-30T19:03:21.205Z,2.17
2023-08-30T19:05:50.199Z,1.98
2023-08-30T19:08:18.891Z,1.92
2023-08-30T19:10:48.480Z,1.98
2023-08-30T19:13:16.696Z,2.35
2023-08-30T19:15:44.902Z,2.03
2023-08-30T19:18:13.102Z,1.77
2023-08-30T19:20:41.437Z,1.80
2023-08-30T19:23:09.843Z,2.08
2023-08-30T19:25:38.284Z,1.88
2023-08-30T19:28:08.293Z,2.10
2023-08-30T19:30:36.578Z,2.00
2023-08-30T19:33:05.015Z,2.28
2023-08-30T19:35:33.576Z,2.25
2023-08-30T19:38:01.730Z,2.17
2023-08-30T19:40:30.866Z,2.13
2023-08-30T19:42:59.099Z,2.10
2023-08-30T19:45:28.715Z,2.25
2023-08-30T19:47:57.171Z,2.10
2023-08-30T19:50:25.574Z,1.90
2023-08-30T19:52:53.766Z,2.00
2023-08-30T19:55:21.960Z,2.10
2023-08-30T19:57:50.579Z,2.38
2023-08-30T20:00:18.797Z,2.97
2023-08-30T20:02:48.468Z,2.20
2023-08-30T20:05:17.021Z,2.60
2023-08-30T20:07:45.280Z,2.30
2023-08-30T20:10:13.516Z,2.20
2023-08-30T20:12:41.769Z,2.45
2023-08-30T20:15:10.771Z,2.95
2023-08-30T20:17:39.023Z,2.88
2023-08-30T20:20:11.715Z,3.08
2023-08-30T20:22:42.198Z,2.70
2023-08-30T20:25:15.334Z,3.30
2023-08-30T20:27:43.571Z,3.35
2023-08-30T20:30:12.814Z,3.90
2023-08-30T20:32:41.095Z,3.95
2023-08-30T20:35:11.219Z,3.95
2023-08-30T20:37:39.414Z,3.53
2023-08-30T20:40:08.724Z,3.60
2023-08-30T20:42:46.133Z,3.28
2023-08-30T20:45:15.818Z,3.38
2023-08-30T20:47:45.607Z,3.50
2023-08-30T20:50:15.781Z,3.33
2023-08-30T20:52:43.984Z,3.60
2023-08-30T20:55:12.225Z,3.25
2023-08-30T20:57:40.433Z,3.30
2023-08-30T21:00:10.955Z,3.40
2023-08-30T21:02:39.700Z,3.67
2023-08-30T21:05:08.681Z,3.50
2023-08-30T21:07:38.261Z,3.40
2023-08-30T21:10:07.150Z,2.95
2023-08-30T21:12:35.631Z,3.58
2023-08-30T21:15:04.086Z,4.10
2023-08-30T21:17:32.329Z,4.18
2023-08-30T21:20:00.616Z,4.00
2023-08-30T21:22:28.917Z,4.25
2023-08-30T21:24:59.379Z,3.90
2023-08-30T21:27:27.680Z,3.65
2023-08-30T21:29:55.905Z,3.83
2023-08-30T21:32:24.111Z,3.40
2023-08-30T21:34:52.350Z,3.30
2023-08-30T21:37:20.530Z,3.20
2023-08-30T21:39:49.713Z,3.10
2023-08-30T21:42:19.293Z,2.22
2023-08-30T21:44:47.599Z,2.83
2023-08-30T21:47:15.810Z,3.00
2023-08-30T21:49:44.013Z,3.20
2023-08-30T21:52:15.362Z,3.40
2023-08-30T21:54:44.237Z,3.50
2023-08-30T21:57:15.535Z,4.07
2023-08-30T21:59:45.058Z,3.83
2023-08-30T22:02:13.245Z,3.65
2023-08-30T22:04:42.056Z,3.85
2023-08-30T22:07:10.616Z,3.60
2023-08-30T22:09:39.359Z,3.40
2023-08-30T22:12:08.161Z,3.35
2023-08-30T22:14:47.862Z,3.40
2023-08-30T22:17:19.580Z,3.50
2023-08-30T22:19:48.025Z,4.07
2023-08-30T22:22:16.278Z,4.32
2023-08-30T22:24:44.490Z,4.20
2023-08-30T22:27:13.149Z,4.63
2023-08-30T22:29:41.534Z,5.00
2023-08-30T22:32:09.705Z,4.95
2023-08-30T22:34:39.438Z,5.50
2023-08-30T22:37:08.739Z,5.00
2023-08-30T22:39:37.071Z,5.28
2023-08-30T22:42:06.226Z,5.30
2023-08-30T22:44:34.640Z,5.55
2023-08-30T22:47:02.913Z,5.28
2023-08-30T22:49:32.121Z,5.15
2023-08-30T22:52:01.656Z,5.32
2023-08-30T22:54:30.426Z,5.28
2023-08-30T22:56:58.835Z,5.30
2023-08-30T22:59:29.154Z,4.97
2023-08-30T23:01:57.670Z,5.60
2023-08-30T23:04:25.974Z,5.15
2023-08-30T23:06:54.270Z,5.50
2023-08-30T23:09:24.579Z,5.68
2023-08-30T23:11:53.083Z,5.40
2023-08-30T23:14:21.374Z,5.75
2023-08-30T23:16:49.664Z,5.50
2023-08-30T23:19:18.121Z,5.95
2023-08-30T23:21:46.402Z,5.30
2023-08-30T23:24:14.788Z,5.70
2023-08-30T23:26:45.013Z,5.07
2023-08-30T23:29:13.158Z,5.70
2023-08-30T23:31:41.444Z,5.57
2023-08-30T23:34:09.729Z,5.72
2023-08-30T23:36:37.927Z,6.13
2023-08-30T23:39:06.628Z,5.95
2023-08-30T23:41:34.815Z,6.20
2023-08-30T23:44:04.538Z,5.45
2023-08-30T23:46:32.754Z,5.70
2023-08-30T23:49:00.997Z,5.85
2023-08-30T23:51:29.219Z,5.65
2023-08-30T23:53:57.515Z,6.35
2023-08-30T23:56:25.758Z,6.10
2023-08-30T23:58:53.903Z,5.57
